createdAt,value
2016-06-07T00:00:56.666Z,1014.94
2016-06-07T00:01:56.653Z,1014.93
2016-06-07T00:02:56.641Z,1014.95
2016-06-07T00:03:56.626Z,1014.93
2016-06-07T00:04:56.614Z,1014.96
2016-06-07T00:05:56.960Z,1014.99
2016-06-07T00:06:56.588Z,1014.91
2016-06-07T00:07:56.574Z,1014.97
2016-06-07T00:08:56.562Z,1014.95
2016-06-07T00:09:56.565Z,1014.94
2016-06-07T00:10:56.552Z,1014.94
2016-06-07T00:11:56.540Z,1014.95
2016-06-07T00:12:56.526Z,1014.93
2016-06-07T00:13:56.512Z,1014.97
2016-06-07T00:14:56.500Z,1014.92
2016-06-07T00:15:56.487Z,1014.92
2016-06-07T00:16:56.474Z,1014.9
2016-06-07T00:17:56.461Z,1014.9
2016-06-07T00:18:56.448Z,1014.94
2016-06-07T00:19:56.436Z,1014.93
2016-06-07T00:20:56.423Z,1014.96
2016-06-07T00:21:56.410Z,1014.93
2016-06-07T00:22:56.397Z,1014.92
2016-06-07T00:23:56.383Z,1014.92
2016-06-07T00:24:56.370Z,1014.99
2016-06-07T00:25:56.358Z,1014.95
2016-06-07T00:26:56.344Z,1014.93
2016-06-07T00:27:56.333Z,1014.94
2016-06-07T00:28:56.320Z,1014.9
2016-06-07T00:29:56.306Z,1014.97
2016-06-07T00:30:56.308Z,1014.94
2016-06-07T00:31:56.296Z,1014.93
2016-06-07T00:32:56.283Z,1014.94
2016-06-07T00:33:56.270Z,1014.97
2016-06-07T00:34:56.241Z,1014.96
2016-06-07T00:35:56.260Z,1014.98
2016-06-07T00:36:56.231Z,1014.92
2016-06-07T00:37:56.219Z,1014.98
2016-06-07T00:38:56.205Z,1014.95
2016-06-07T00:39:56.192Z,1014.95
2016-06-07T00:40:56.179Z,1014.92
2016-06-07T00:41:56.166Z,1014.93
2016-06-07T00:42:56.154Z,1014.92
2016-06-07T00:43:56.140Z,1014.94
2016-06-07T00:44:56.128Z,1014.93
2016-06-07T00:45:56.115Z,1014.91
2016-06-07T00:46:56.102Z,1014.93
2016-06-07T00:47:56.089Z,1014.94
2016-06-07T00:48:56.076Z,1014.99
2016-06-07T00:49:56.062Z,1015
2016-06-07T00:50:56.050Z,1015
2016-06-07T00:51:56.037Z,1015.01
2016-06-07T00:52:56.040Z,1014.97
2016-06-07T00:53:56.011Z,1015
2016-06-07T00:54:55.998Z,1015.03
2016-06-07T00:55:55.986Z,1014.97
2016-06-07T00:56:55.973Z,1014.99
2016-06-07T00:57:55.959Z,1015.03
2016-06-07T00:58:55.947Z,1015.06
2016-06-07T00:59:55.934Z,1015.01
2016-06-07T01:00:55.921Z,1015.07
2016-06-07T01:01:55.924Z,1015.01
2016-06-07T01:02:55.895Z,1015.01
2016-06-07T01:03:55.882Z,1015.02
2016-06-07T01:04:55.869Z,1015.01
2016-06-07T01:05:55.855Z,1015.02
2016-06-07T01:06:56.249Z,1015.02
2016-06-07T01:07:55.830Z,1015
2016-06-07T01:08:55.833Z,1014.98
2016-06-07T01:09:55.821Z,1015.01
2016-06-07T01:10:55.807Z,1015.04
2016-06-07T01:11:55.793Z,1015.05
2016-06-07T01:12:55.781Z,1015.05
2016-06-07T01:13:55.768Z,1015.04
2016-06-07T01:14:55.755Z,1015.03
2016-06-07T01:15:55.742Z,1015
2016-06-07T01:16:55.729Z,1015.01
2016-06-07T01:17:55.717Z,1015.02
2016-06-07T01:18:55.703Z,1015.04
2016-06-07T01:19:55.690Z,1015.03
2016-06-07T01:20:55.740Z,1015.05
2016-06-07T01:21:55.853Z,1015.06
2016-06-07T01:22:55.651Z,1015
2016-06-07T01:23:55.639Z,1015.05
2016-06-07T01:24:55.625Z,1015.06
2016-06-07T01:25:55.629Z,1015.04
2016-06-07T01:26:55.600Z,1015.05
2016-06-07T01:27:55.587Z,1014.98
2016-06-07T01:28:55.574Z,1015.02
2016-06-07T01:29:55.561Z,1014.98
2016-06-07T01:30:55.548Z,1014.98
2016-06-07T01:31:55.536Z,1014.95
2016-06-07T01:32:55.522Z,1014.97
2016-06-07T01:33:55.510Z,1014.94
2016-06-07T01:34:55.496Z,1014.96
2016-06-07T01:35:55.484Z,1014.96
2016-06-07T01:36:55.486Z,1014.99
2016-06-07T01:37:55.458Z,1015.01
2016-06-07T01:38:55.444Z,1015.02
2016-06-07T01:39:55.432Z,1014.97
2016-06-07T01:40:55.419Z,1015.01
2016-06-07T01:41:55.407Z,1015
2016-06-07T01:42:55.393Z,1014.98
2016-06-07T01:43:55.377Z,1014.98
2016-06-07T01:44:55.364Z,1014.96
2016-06-07T01:45:55.351Z,1014.99
2016-06-07T01:46:55.338Z,1014.99
2016-06-07T01:47:55.325Z,1014.99
2016-06-07T01:48:55.316Z,1014.99
2016-06-07T01:49:55.334Z,1014.95
2016-06-07T01:50:55.807Z,1014.94
2016-06-07T01:51:55.322Z,1014.94
2016-06-07T01:52:55.324Z,1014.93
2016-06-07T01:53:55.324Z,1014.9
2016-06-07T01:54:55.316Z,1014.91
2016-06-07T01:55:55.309Z,1014.94
2016-06-07T01:56:55.318Z,1014.91
2016-06-07T01:57:55.309Z,1014.92
2016-06-07T01:58:55.302Z,1014.91
2016-06-07T01:59:55.274Z,1014.86
2016-06-07T02:00:55.278Z,1014.9
2016-06-07T02:01:55.283Z,1014.87
2016-06-07T02:02:55.257Z,1014.9
2016-06-07T02:03:55.245Z,1014.87
2016-06-07T02:04:55.234Z,1014.93
2016-06-07T02:05:55.238Z,1014.89
2016-06-07T02:06:55.210Z,1014.91
2016-06-07T02:07:55.197Z,1014.95
2016-06-07T02:08:55.185Z,1014.93
2016-06-07T02:09:55.173Z,1014.92
2016-06-07T02:10:55.160Z,1014.93
2016-06-07T02:11:55.146Z,1014.94
2016-06-07T02:12:55.135Z,1014.96
2016-06-07T02:13:55.122Z,1014.96
2016-06-07T02:14:55.110Z,1014.98
2016-06-07T02:15:55.096Z,1014.97
2016-06-07T02:16:55.083Z,1014.95
2016-06-07T02:17:55.070Z,1014.95
2016-06-07T02:18:55.058Z,1014.94
2016-06-07T02:19:55.044Z,1014.95
2016-06-07T02:20:55.032Z,1014.94
2016-06-07T02:21:55.315Z,1014.99
2016-06-07T02:22:55.006Z,1014.95
2016-06-07T02:23:54.993Z,1014.92
2016-06-07T02:24:54.980Z,1014.93
2016-06-07T02:25:54.967Z,1014.92
2016-06-07T02:26:54.954Z,1014.92
2016-06-07T02:27:54.941Z,1014.96
2016-06-07T02:28:54.975Z,1014.95
2016-06-07T02:29:54.915Z,1014.94
2016-06-07T02:30:54.902Z,1014.93
2016-06-07T02:31:54.889Z,1014.91
2016-06-07T02:32:54.876Z,1014.95
2016-06-07T02:33:54.864Z,1014.96
2016-06-07T02:34:54.851Z,1014.97
2016-06-07T02:35:55.541Z,1014.91
2016-06-07T02:36:54.825Z,1014.94
2016-06-07T02:37:54.811Z,1014.89
2016-06-07T02:38:54.799Z,1014.92
2016-06-07T02:39:54.786Z,1014.89
2016-06-07T02:40:54.773Z,1014.93
2016-06-07T02:41:54.760Z,1014.9
2016-06-07T02:42:54.747Z,1014.95
2016-06-07T02:43:54.734Z,1014.91
2016-06-07T02:44:54.721Z,1014.87
2016-06-07T02:45:54.708Z,1014.9
2016-06-07T02:46:54.696Z,1014.87
2016-06-07T02:47:54.698Z,1014.94
2016-06-07T02:48:54.669Z,1014.91
2016-06-07T02:49:54.656Z,1014.97
2016-06-07T02:50:55.050Z,1014.91
2016-06-07T02:51:54.631Z,1014.88
2016-06-07T02:52:54.617Z,1014.89
2016-06-07T02:53:54.605Z,1014.91
2016-06-07T02:54:54.592Z,1014.91
2016-06-07T02:55:54.579Z,1014.93
2016-06-07T02:56:54.566Z,1014.89
2016-06-07T02:57:54.553Z,1014.91
2016-06-07T02:58:54.540Z,1014.89
2016-06-07T02:59:54.527Z,1014.88
2016-06-07T03:00:54.515Z,1014.89
2016-06-07T03:01:54.501Z,1014.94
2016-06-07T03:02:54.489Z,1014.88
2016-06-07T03:03:54.475Z,1014.93
2016-06-07T03:04:54.462Z,1014.9
2016-06-07T03:05:55.387Z,1014.88
2016-06-07T03:06:54.436Z,1014.89
2016-06-07T03:07:54.423Z,1014.87
2016-06-07T03:08:54.411Z,1014.92
2016-06-07T03:09:54.398Z,1014.89
2016-06-07T03:10:54.385Z,1014.91
2016-06-07T03:11:54.372Z,1014.91
2016-06-07T03:12:54.358Z,1014.91
2016-06-07T03:13:54.346Z,1014.9
2016-06-07T03:14:54.333Z,1014.89
2016-06-07T03:15:54.319Z,1014.91
2016-06-07T03:16:54.307Z,1014.93
2016-06-07T03:17:54.294Z,1014.88
2016-06-07T03:18:54.282Z,1014.94
2016-06-07T03:19:54.269Z,1014.91
2016-06-07T03:20:54.255Z,1014.91
2016-06-07T03:21:54.243Z,1014.88
2016-06-07T03:22:54.230Z,1014.91
2016-06-07T03:23:54.216Z,1014.87
2016-06-07T03:24:54.204Z,1014.9
2016-06-07T03:25:54.238Z,1014.87
2016-06-07T03:26:54.179Z,1014.87
2016-06-07T03:27:54.165Z,1014.91
2016-06-07T03:28:54.152Z,1014.92
2016-06-07T03:29:54.139Z,1014.91
2016-06-07T03:30:54.126Z,1014.92
2016-06-07T03:31:54.113Z,1014.97
2016-06-07T03:32:54.101Z,1014.94
2016-06-07T03:33:54.384Z,1014.98
2016-06-07T03:34:54.075Z,1014.97
2016-06-07T03:35:54.061Z,1014.91
2016-06-07T03:36:54.048Z,1014.94
2016-06-07T03:37:54.036Z,1014.94
2016-06-07T03:38:54.022Z,1014.92
2016-06-07T03:39:54.009Z,1014.9
2016-06-07T03:40:53.997Z,1014.98
2016-06-07T03:41:54.390Z,1014.99
2016-06-07T03:42:53.971Z,1014.97
2016-06-07T03:43:53.958Z,1015.01
2016-06-07T03:44:53.945Z,1015
2016-06-07T03:45:53.947Z,1015.01
2016-06-07T03:46:53.919Z,1015.06
2016-06-07T03:47:53.906Z,1015.05
2016-06-07T03:48:53.893Z,1015.01
2016-06-07T03:49:54.271Z,1014.99
2016-06-07T03:50:53.868Z,1015.02
2016-06-07T03:51:53.996Z,1015.05
2016-06-07T03:52:53.841Z,1015.02
2016-06-07T03:53:53.829Z,1015.03
2016-06-07T03:54:53.816Z,1015.03
2016-06-07T03:55:53.802Z,1015.07
2016-06-07T03:56:53.790Z,1015.08
2016-06-07T03:57:54.276Z,1015.15
2016-06-07T03:58:53.764Z,1015.15
2016-06-07T03:59:53.751Z,1015.16
2016-06-07T04:00:53.738Z,1015.11
2016-06-07T04:01:53.726Z,1015.16
2016-06-07T04:02:53.712Z,1015.11
2016-06-07T04:03:53.699Z,1015.11
2016-06-07T04:04:53.686Z,1015.1
2016-06-07T04:05:54.314Z,1015.11
2016-06-07T04:06:53.661Z,1015.1
2016-06-07T04:07:53.648Z,1015.08
2016-06-07T04:08:53.634Z,1015.12
2016-06-07T04:09:53.622Z,1015.16
2016-06-07T04:10:53.609Z,1015.15
2016-06-07T04:11:53.611Z,1015.19
2016-06-07T04:12:53.567Z,1015.17
2016-06-07T04:13:53.570Z,1015.18
2016-06-07T04:14:53.558Z,1015.17
2016-06-07T04:15:53.544Z,1015.22
2016-06-07T04:16:53.530Z,1015.2
2016-06-07T04:17:53.503Z,1015.17
2016-06-07T04:18:53.506Z,1015.16
2016-06-07T04:19:53.492Z,1015.17
2016-06-07T04:20:53.479Z,1015.12
2016-06-07T04:21:53.560Z,1015.14
2016-06-07T04:22:53.438Z,1015.15
2016-06-07T04:23:53.441Z,1015.14
2016-06-07T04:24:53.413Z,1015.16
2016-06-07T04:25:53.399Z,1015.19
2016-06-07T04:26:53.385Z,1015.17
2016-06-07T04:27:53.374Z,1015.19
2016-06-07T04:28:53.376Z,1015.18
2016-06-07T04:29:53.598Z,1015.16
2016-06-07T04:30:53.334Z,1015.18
2016-06-07T04:31:53.354Z,1015.18
2016-06-07T04:32:53.324Z,1015.17
2016-06-07T04:33:53.295Z,1015.2
2016-06-07T04:34:53.299Z,1015.21
2016-06-07T04:35:53.284Z,1015.2
2016-06-07T04:36:53.273Z,1015.24
2016-06-07T04:37:53.603Z,1015.24
2016-06-07T04:38:53.247Z,1015.25
2016-06-07T04:39:53.233Z,1015.22
2016-06-07T04:40:53.206Z,1015.24
2016-06-07T04:41:53.192Z,1015.25
2016-06-07T04:42:53.179Z,1015.26
2016-06-07T04:43:53.166Z,1015.21
2016-06-07T04:44:53.154Z,1015.25
2016-06-07T04:45:53.593Z,1015.22
2016-06-07T04:46:53.127Z,1015.24
2016-06-07T04:47:53.114Z,1015.19
2016-06-07T04:48:53.102Z,1015.26
2016-06-07T04:49:53.089Z,1015.21
2016-06-07T04:50:53.075Z,1015.23
2016-06-07T04:51:53.063Z,1015.24
2016-06-07T04:52:53.330Z,1015.24
2016-06-07T04:53:53.037Z,1015.24
2016-06-07T04:54:53.024Z,1015.25
2016-06-07T04:55:53.011Z,1015.23
2016-06-07T04:56:52.998Z,1015.24
2016-06-07T04:57:52.985Z,1015.24
2016-06-07T04:58:52.972Z,1015.23
2016-06-07T04:59:52.960Z,1015.24
2016-06-07T05:00:52.946Z,1015.27
2016-06-07T05:01:52.934Z,1015.23
2016-06-07T05:02:52.920Z,1015.23
2016-06-07T05:03:52.907Z,1015.24
2016-06-07T05:04:52.895Z,1015.27
2016-06-07T05:05:52.882Z,1015.28
2016-06-07T05:06:52.869Z,1015.23
2016-06-07T05:07:52.871Z,1015.3
2016-06-07T05:08:53.343Z,1015.26
2016-06-07T05:09:52.830Z,1015.27
2016-06-07T05:10:52.817Z,1015.26
2016-06-07T05:11:52.804Z,1015.26
2016-06-07T05:12:52.791Z,1015.26
2016-06-07T05:13:52.778Z,1015.25
2016-06-07T05:14:52.765Z,1015.26
2016-06-07T05:15:52.753Z,1015.26
2016-06-07T05:16:53.380Z,1015.27
2016-06-07T05:17:52.726Z,1015.24
2016-06-07T05:18:52.714Z,1015.25
2016-06-07T05:19:52.700Z,1015.28
2016-06-07T05:20:52.688Z,1015.28
2016-06-07T05:21:52.674Z,1015.27
2016-06-07T05:22:52.662Z,1015.32
2016-06-07T05:23:52.649Z,1015.3
2016-06-07T05:24:52.636Z,1015.31
2016-06-07T05:25:52.623Z,1015.36
2016-06-07T05:26:52.610Z,1015.35
2016-06-07T05:27:52.597Z,1015.36
2016-06-07T05:28:52.585Z,1015.32
2016-06-07T05:29:52.555Z,1015.36
2016-06-07T05:30:52.557Z,1015.31
2016-06-07T05:31:52.639Z,1015.36
2016-06-07T05:32:52.532Z,1015.33
2016-06-07T05:33:52.520Z,1015.32
2016-06-07T05:34:52.491Z,1015.37
2016-06-07T05:35:52.479Z,1015.4
2016-06-07T05:36:52.809Z,1015.42
2016-06-07T05:37:52.467Z,1015.44
2016-06-07T05:38:52.440Z,1015.43
2016-06-07T05:39:52.676Z,1015.47
2016-06-07T05:40:52.414Z,1015.44
2016-06-07T05:41:52.416Z,1015.45
2016-06-07T05:42:52.403Z,1015.45
2016-06-07T05:43:52.390Z,1015.49
2016-06-07T05:44:52.362Z,1015.47
2016-06-07T05:45:52.348Z,1015.48
2016-06-07T05:46:52.336Z,1015.48
2016-06-07T05:47:53.525Z,1015.5
2016-06-07T05:48:52.310Z,1015.5
2016-06-07T05:49:52.297Z,1015.43
2016-06-07T05:50:52.283Z,1015.51
2016-06-07T05:51:52.271Z,1015.53
2016-06-07T05:52:52.258Z,1015.53
2016-06-07T05:53:52.245Z,1015.57
2016-06-07T05:54:52.233Z,1015.54
2016-06-07T05:55:52.672Z,1015.53
2016-06-07T05:56:52.207Z,1015.52
2016-06-07T05:57:52.194Z,1015.51
2016-06-07T05:58:52.181Z,1015.5
2016-06-07T05:59:52.168Z,1015.51
2016-06-07T06:00:52.154Z,1015.48
2016-06-07T06:01:52.142Z,1015.52
2016-06-07T06:02:52.129Z,1015.55
2016-06-07T06:03:52.116Z,1015.51
2016-06-07T06:04:52.103Z,1015.53
2016-06-07T06:05:52.090Z,1015.55
2016-06-07T06:06:52.077Z,1015.57
2016-06-07T06:07:52.237Z,1015.58
2016-06-07T06:08:52.051Z,1015.58
2016-06-07T06:09:52.038Z,1015.57
2016-06-07T06:10:52.026Z,1015.58
2016-06-07T06:11:52.012Z,1015.6
2016-06-07T06:12:52.000Z,1015.62
2016-06-07T06:13:51.987Z,1015.59
2016-06-07T06:14:51.973Z,1015.64
2016-06-07T06:15:51.961Z,1015.67
2016-06-07T06:16:51.947Z,1015.65
2016-06-07T06:17:51.935Z,1015.74
2016-06-07T06:18:51.922Z,1015.7
2016-06-07T06:19:51.909Z,1015.74
2016-06-07T06:20:51.896Z,1015.7
2016-06-07T06:21:51.883Z,1015.72
2016-06-07T06:22:51.870Z,1015.69
2016-06-07T06:23:51.858Z,1015.68
2016-06-07T06:24:51.844Z,1015.68
2016-06-07T06:25:51.831Z,1015.7
2016-06-07T06:26:51.819Z,1015.72
2016-06-07T06:27:51.805Z,1015.68
2016-06-07T06:28:51.793Z,1015.72
2016-06-07T06:29:51.779Z,1015.72
2016-06-07T06:30:51.767Z,1015.71
2016-06-07T06:31:51.754Z,1015.67
2016-06-07T06:32:51.724Z,1015.71
2016-06-07T06:33:51.728Z,1015.68
2016-06-07T06:34:51.699Z,1015.72
2016-06-07T06:35:51.701Z,1015.72
2016-06-07T06:36:51.673Z,1015.73
2016-06-07T06:37:51.676Z,1015.74
2016-06-07T06:38:51.648Z,1015.76
2016-06-07T06:39:51.634Z,1015.77
2016-06-07T06:40:51.621Z,1015.73
2016-06-07T06:41:51.608Z,1015.73
2016-06-07T06:42:51.596Z,1015.74
2016-06-07T06:43:51.584Z,1015.75
2016-06-07T06:44:51.586Z,1015.74
2016-06-07T06:45:51.556Z,1015.76
2016-06-07T06:46:51.560Z,1015.77
2016-06-07T06:47:51.531Z,1015.75
2016-06-07T06:48:51.517Z,1015.76
2016-06-07T06:49:51.506Z,1015.76
2016-06-07T06:50:51.492Z,1015.83
2016-06-07T06:51:51.480Z,1015.77
2016-06-07T06:52:51.466Z,1015.74
2016-06-07T06:53:51.454Z,1015.79
2016-06-07T06:54:51.441Z,1015.72
2016-06-07T06:55:51.427Z,1015.74
2016-06-07T06:56:51.431Z,1015.72
2016-06-07T06:57:51.402Z,1015.79
2016-06-07T06:58:51.389Z,1015.74
2016-06-07T06:59:51.376Z,1015.74
2016-06-07T07:00:51.378Z,1015.79
2016-06-07T07:01:51.350Z,1015.75
2016-06-07T07:02:51.338Z,1015.79
2016-06-07T07:03:51.324Z,1015.81
2016-06-07T07:04:51.311Z,1015.78
2016-06-07T07:05:51.299Z,1015.79
2016-06-07T07:06:51.301Z,1015.78
2016-06-07T07:07:51.288Z,1015.79
2016-06-07T07:08:51.259Z,1015.81
2016-06-07T07:09:51.246Z,1015.8
2016-06-07T07:10:51.234Z,1015.79
2016-06-07T07:11:51.220Z,1015.79
2016-06-07T07:12:51.207Z,1015.82
2016-06-07T07:13:51.195Z,1015.81
2016-06-07T07:14:51.182Z,1015.78
2016-06-07T07:15:51.184Z,1015.85
2016-06-07T07:16:51.156Z,1015.83
2016-06-07T07:17:51.143Z,1015.78
2016-06-07T07:18:51.145Z,1015.8
2016-06-07T07:19:51.117Z,1015.8
2016-06-07T07:20:51.103Z,1015.81
2016-06-07T07:21:51.357Z,1015.79
2016-06-07T07:22:51.125Z,1015.78
2016-06-07T07:23:51.065Z,1015.84
2016-06-07T07:24:51.053Z,1015.85
2016-06-07T07:25:51.039Z,1015.76
2016-06-07T07:26:51.027Z,1015.8
2016-06-07T07:27:51.013Z,1015.86
2016-06-07T07:28:51.000Z,1015.77
2016-06-07T07:29:50.988Z,1015.78
2016-06-07T07:30:51.022Z,1015.78
2016-06-07T07:31:50.962Z,1015.75
2016-06-07T07:32:50.949Z,1015.78
2016-06-07T07:33:50.936Z,1015.76
2016-06-07T07:34:50.939Z,1015.74
2016-06-07T07:35:50.926Z,1015.74
2016-06-07T07:36:50.897Z,1015.76
2016-06-07T07:37:50.885Z,1015.77
2016-06-07T07:38:50.871Z,1015.77
2016-06-07T07:39:50.858Z,1015.77
2016-06-07T07:40:50.845Z,1015.77
2016-06-07T07:41:50.849Z,1015.75
2016-06-07T07:42:50.820Z,1015.81
2016-06-07T07:43:50.807Z,1015.84
2016-06-07T07:44:50.793Z,1015.78
2016-06-07T07:45:50.781Z,1015.78
2016-06-07T07:46:50.767Z,1015.81
2016-06-07T07:47:50.756Z,1015.86
2016-06-07T07:48:50.758Z,1015.87
2016-06-07T07:49:50.728Z,1015.83
2016-06-07T07:50:50.716Z,1015.85
2016-06-07T07:51:50.719Z,1015.87
2016-06-07T07:52:51.222Z,1015.85
2016-06-07T07:53:50.677Z,1015.87
2016-06-07T07:54:50.664Z,1015.86
2016-06-07T07:55:50.667Z,1015.86
2016-06-07T07:56:50.638Z,1015.89
2016-06-07T07:57:50.641Z,1015.84
2016-06-07T07:58:50.613Z,1015.88
2016-06-07T07:59:50.600Z,1015.87
2016-06-07T08:00:50.586Z,1015.86
2016-06-07T08:01:50.589Z,1015.85
2016-06-07T08:02:50.561Z,1015.83
2016-06-07T08:03:50.548Z,1015.8
2016-06-07T08:04:50.551Z,1015.84
2016-06-07T08:05:50.537Z,1015.8
2016-06-07T08:06:50.524Z,1015.86
2016-06-07T08:07:50.513Z,1015.82
2016-06-07T08:08:50.499Z,1015.83
2016-06-07T08:09:50.486Z,1015.81
2016-06-07T08:10:50.473Z,1015.81
2016-06-07T08:11:50.460Z,1015.82
2016-06-07T08:12:50.448Z,1015.84
2016-06-07T08:13:50.434Z,1015.81
2016-06-07T08:14:50.421Z,1015.78
2016-06-07T08:15:50.408Z,1015.8
2016-06-07T08:16:50.395Z,1015.81
2016-06-07T08:17:50.382Z,1015.79
2016-06-07T08:18:50.370Z,1015.8
2016-06-07T08:19:50.357Z,1015.79
2016-06-07T08:20:50.344Z,1015.76
2016-06-07T08:21:50.330Z,1015.81
2016-06-07T08:22:50.317Z,1015.77
2016-06-07T08:23:50.321Z,1015.81
2016-06-07T08:24:50.292Z,1015.79
2016-06-07T08:25:50.278Z,1015.77
2016-06-07T08:26:50.266Z,1015.79
2016-06-07T08:27:50.253Z,1015.78
2016-06-07T08:28:50.240Z,1015.76
2016-06-07T08:29:50.228Z,1015.78
2016-06-07T08:30:50.214Z,1015.77
2016-06-07T08:31:50.202Z,1015.77
2016-06-07T08:32:50.188Z,1015.77
2016-06-07T08:33:50.191Z,1015.74
2016-06-07T08:34:50.177Z,1015.75
2016-06-07T08:35:50.149Z,1015.72
2016-06-07T08:36:50.153Z,1015.76
2016-06-07T08:37:50.155Z,1015.73
2016-06-07T08:38:50.126Z,1015.75
2016-06-07T08:39:50.113Z,1015.78
2016-06-07T08:40:50.100Z,1015.8
2016-06-07T08:41:50.088Z,1015.8
2016-06-07T08:42:50.074Z,1015.72
2016-06-07T08:43:50.062Z,1015.76
2016-06-07T08:44:50.033Z,1015.76
2016-06-07T08:45:50.036Z,1015.78
2016-06-07T08:46:50.195Z,1015.76
2016-06-07T08:47:50.010Z,1015.73
2016-06-07T08:48:49.997Z,1015.69
2016-06-07T08:49:49.984Z,1015.72
2016-06-07T08:50:49.970Z,1015.72
2016-06-07T08:51:49.959Z,1015.73
2016-06-07T08:52:49.945Z,1015.68
2016-06-07T08:53:49.933Z,1015.78
2016-06-07T08:54:49.919Z,1015.71
2016-06-07T08:55:49.906Z,1015.71
2016-06-07T08:56:49.894Z,1015.7
2016-06-07T08:57:49.881Z,1015.72
2016-06-07T08:58:49.867Z,1015.74
2016-06-07T08:59:53.402Z,1015.73
2016-06-07T09:00:49.842Z,1015.73
2016-06-07T09:01:49.829Z,1015.77
2016-06-07T09:02:49.816Z,1015.71
2016-06-07T09:03:49.803Z,1015.76
2016-06-07T09:04:49.790Z,1015.72
2016-06-07T09:05:49.777Z,1015.73
2016-06-07T09:06:49.764Z,1015.72
2016-06-07T09:07:50.360Z,1015.73
2016-06-07T09:08:49.738Z,1015.72
2016-06-07T09:09:49.741Z,1015.71
2016-06-07T09:10:49.728Z,1015.7
2016-06-07T09:11:49.716Z,1015.73
2016-06-07T09:12:49.702Z,1015.72
2016-06-07T09:13:49.690Z,1015.7
2016-06-07T09:14:49.723Z,1015.68
2016-06-07T09:15:49.663Z,1015.69
2016-06-07T09:16:49.651Z,1015.74
2016-06-07T09:17:49.637Z,1015.7
2016-06-07T09:18:49.625Z,1015.72
2016-06-07T09:19:49.612Z,1015.73
2016-06-07T09:20:49.598Z,1015.73
2016-06-07T09:21:49.587Z,1015.68
2016-06-07T09:22:49.620Z,1015.72
2016-06-07T09:23:49.559Z,1015.7
2016-06-07T09:24:49.547Z,1015.67
2016-06-07T09:25:49.534Z,1015.68
2016-06-07T09:26:49.522Z,1015.74
2016-06-07T09:27:49.525Z,1015.67
2016-06-07T09:28:49.495Z,1015.7
2016-06-07T09:29:49.482Z,1015.73
2016-06-07T09:30:49.641Z,1015.7
2016-06-07T09:31:49.457Z,1015.67
2016-06-07T09:32:49.444Z,1015.72
2016-06-07T09:33:49.447Z,1015.67
2016-06-07T09:34:49.434Z,1015.73
2016-06-07T09:35:49.421Z,1015.74
2016-06-07T09:36:49.423Z,1015.71
2016-06-07T09:37:49.394Z,1015.7
2016-06-07T09:38:49.725Z,1015.71
2016-06-07T09:39:49.368Z,1015.69
2016-06-07T09:40:49.355Z,1015.72
2016-06-07T09:41:49.343Z,1015.7
2016-06-07T09:42:49.346Z,1015.7
2016-06-07T09:43:49.317Z,1015.7
2016-06-07T09:44:49.304Z,1015.71
2016-06-07T09:45:49.290Z,1015.69
2016-06-07T09:46:49.685Z,1015.71
2016-06-07T09:47:49.265Z,1015.73
2016-06-07T09:48:49.252Z,1015.67
2016-06-07T09:49:49.240Z,1015.63
2016-06-07T09:50:49.226Z,1015.65
2016-06-07T09:51:49.214Z,1015.63
2016-06-07T09:52:49.201Z,1015.66
2016-06-07T09:53:49.203Z,1015.62
2016-06-07T09:54:49.643Z,1015.61
2016-06-07T09:55:49.178Z,1015.6
2016-06-07T09:56:49.164Z,1015.57
2016-06-07T09:57:49.151Z,1015.59
2016-06-07T09:58:49.139Z,1015.57
2016-06-07T09:59:49.125Z,1015.56
2016-06-07T10:00:49.113Z,1015.54
2016-06-07T10:01:49.100Z,1015.48
2016-06-07T10:02:49.789Z,1015.53
2016-06-07T10:03:49.074Z,1015.5
2016-06-07T10:04:49.061Z,1015.55
2016-06-07T10:05:49.048Z,1015.52
2016-06-07T10:06:49.035Z,1015.46
2016-06-07T10:07:49.694Z,1015.5
2016-06-07T10:08:49.010Z,1015.47
2016-06-07T10:09:48.997Z,1015.48
2016-06-07T10:10:48.999Z,1015.47
2016-06-07T10:11:48.970Z,1015.43
2016-06-07T10:12:48.957Z,1015.47
2016-06-07T10:13:48.960Z,1015.47
2016-06-07T10:14:48.947Z,1015.46
2016-06-07T10:15:48.919Z,1015.49
2016-06-07T10:16:48.921Z,1015.5
2016-06-07T10:17:48.909Z,1015.49
2016-06-07T10:18:48.943Z,1015.47
2016-06-07T10:19:48.884Z,1015.44
2016-06-07T10:20:48.871Z,1015.44
2016-06-07T10:21:48.857Z,1015.42
2016-06-07T10:22:48.845Z,1015.46
2016-06-07T10:23:48.832Z,1015.43
2016-06-07T10:24:48.818Z,1015.44
2016-06-07T10:25:48.807Z,1015.45
2016-06-07T10:26:49.793Z,1015.44
2016-06-07T10:27:48.780Z,1015.47
2016-06-07T10:28:48.767Z,1015.44
2016-06-07T10:30:05.082Z,1015.41
2016-06-07T10:30:48.756Z,1015.45
2016-06-07T10:31:48.744Z,1015.48
2016-06-07T10:32:48.731Z,1015.4
2016-06-07T10:33:48.718Z,1015.43
2016-06-07T10:34:49.002Z,1015.4
2016-06-07T10:35:48.692Z,1015.4
2016-06-07T10:36:48.679Z,1015.42
2016-06-07T10:37:48.666Z,1015.45
2016-06-07T10:38:48.717Z,1015.4
2016-06-07T10:39:48.640Z,1015.42
2016-06-07T10:40:48.628Z,1015.38
2016-06-07T10:41:49.818Z,1015.37
2016-06-07T10:42:48.602Z,1015.37
2016-06-07T10:43:48.589Z,1015.4
2016-06-07T10:44:48.576Z,1015.35
2016-06-07T10:45:48.563Z,1015.38
2016-06-07T10:46:48.550Z,1015.38
2016-06-07T10:47:48.552Z,1015.35
2016-06-07T10:48:48.525Z,1015.39
2016-06-07T10:49:49.824Z,1015.37
2016-06-07T10:50:48.514Z,1015.4
2016-06-07T10:51:48.501Z,1015.37
2016-06-07T10:52:48.847Z,1015.36
2016-06-07T10:53:48.474Z,1015.36
2016-06-07T10:54:48.475Z,1015.34
2016-06-07T10:55:48.477Z,1015.38
2016-06-07T10:56:48.478Z,1015.36
2016-06-07T10:57:48.481Z,1015.35
2016-06-07T10:58:48.483Z,1015.36
2016-06-07T10:59:48.478Z,1015.37
2016-06-07T11:00:48.469Z,1015.39
2016-06-07T11:01:48.461Z,1015.39
2016-06-07T11:02:48.455Z,1015.4
2016-06-07T11:03:48.447Z,1015.37
2016-06-07T11:04:48.436Z,1015.39
2016-06-07T11:05:48.425Z,1015.38
2016-06-07T11:06:48.414Z,1015.38
2016-06-07T11:07:48.919Z,1015.35
2016-06-07T11:08:48.409Z,1015.39
2016-06-07T11:09:48.396Z,1015.39
2016-06-07T11:10:48.368Z,1015.44
2016-06-07T11:11:48.372Z,1015.37
2016-06-07T11:12:48.360Z,1015.41
2016-06-07T11:13:48.346Z,1015.4
2016-06-07T11:14:48.335Z,1015.42
2016-06-07T11:15:48.322Z,1015.39
2016-06-07T11:16:48.310Z,1015.38
2016-06-07T11:17:48.297Z,1015.38
2016-06-07T11:18:48.284Z,1015.38
2016-06-07T11:19:48.865Z,1015.39
2016-06-07T11:20:48.259Z,1015.39
2016-06-07T11:21:48.245Z,1015.36
2016-06-07T11:22:48.233Z,1015.35
2016-06-07T11:23:48.219Z,1015.4
2016-06-07T11:24:48.207Z,1015.33
2016-06-07T11:25:48.210Z,1015.36
2016-06-07T11:26:48.180Z,1015.37
2016-06-07T11:27:48.169Z,1015.35
2016-06-07T11:28:48.171Z,1015.35
2016-06-07T11:29:48.158Z,1015.34
2016-06-07T11:30:48.144Z,1015.31
2016-06-07T11:31:48.133Z,1015.38
2016-06-07T11:32:48.119Z,1015.39
2016-06-07T11:33:48.107Z,1015.35
2016-06-07T11:34:48.093Z,1015.4
2016-06-07T11:35:48.174Z,1015.3
2016-06-07T11:36:48.067Z,1015.32
2016-06-07T11:37:48.054Z,1015.33
2016-06-07T11:38:48.041Z,1015.32
2016-06-07T11:39:48.028Z,1015.27
2016-06-07T11:40:48.015Z,1015.29
2016-06-07T11:41:48.003Z,1015.3
2016-06-07T11:42:47.990Z,1015.3
2016-06-07T11:43:48.180Z,1015.34
2016-06-07T11:44:47.964Z,1015.29
2016-06-07T11:45:47.951Z,1015.26
2016-06-07T11:46:47.937Z,1015.29
2016-06-07T11:47:47.925Z,1015.23
2016-06-07T11:48:47.928Z,1015.28
2016-06-07T11:49:47.900Z,1015.2
2016-06-07T11:50:47.903Z,1015.21
2016-06-07T11:51:49.030Z,1015.21
2016-06-07T11:52:47.876Z,1015.15
2016-06-07T11:53:48.081Z,1015.15
2016-06-07T11:54:47.850Z,1015.17
2016-06-07T11:55:47.836Z,1015.17
2016-06-07T11:56:47.825Z,1015.16
2016-06-07T11:57:47.827Z,1015.13
2016-06-07T11:58:47.799Z,1015.14
2016-06-07T11:59:49.036Z,1015.16
2016-06-07T12:00:47.772Z,1015.17
2016-06-07T12:01:47.757Z,1015.14
2016-06-07T12:02:47.744Z,1015.14
2016-06-07T12:03:47.730Z,1015.12
2016-06-07T12:04:47.718Z,1015.12
2016-06-07T12:05:47.721Z,1015.05
2016-06-07T12:06:47.693Z,1015.09
2016-06-07T12:07:48.198Z,1015.12
2016-06-07T12:08:47.682Z,1015.05